sensor_id;sensor_type;location;lat;lon;timestamp;temperature;humidity
41058;DHT22;66768;48.884;2.258;2023-06-22T00:00:53;22.90;99.40
41058;DHT22;66768;48.884;2.258;2023-06-22T00:03:22;22.90;99.30
41058;DHT22;66768;48.884;2.258;2023-06-22T00:05:50;22.90;99.40
41058;DHT22;66768;48.884;2.258;2023-06-22T00:08:18;22.90;99.30
41058;DHT22;66768;48.884;2.258;2023-06-22T00:10:46;22.80;99.30
41058;DHT22;66768;48.884;2.258;2023-06-22T00:13:14;22.90;99.30
41058;DHT22;66768;48.884;2.258;2023-06-22T00:15:44;22.80;99.20
41058;DHT22;66768;48.884;2.258;2023-06-22T00:18:11;22.80;99.30
41058;DHT22;66768;48.884;2.258;2023-06-22T00:20:39;22.80;99.40
41058;DHT22;66768;48.884;2.258;2023-06-22T00:23:06;22.80;99.70
41058;DHT22;66768;48.884;2.258;2023-06-22T00:25:34;22.80;99.70
41058;DHT22;66768;48.884;2.258;2023-06-22T00:28:01;22.80;99.70
41058;DHT22;66768;48.884;2.258;2023-06-22T00:30:29;22.80;99.50
41058;DHT22;66768;48.884;2.258;2023-06-22T00:32:58;22.70;99.40
41058;DHT22;66768;48.884;2.258;2023-06-22T00:35:25;22.70;99.40
41058;DHT22;66768;48.884;2.258;2023-06-22T00:37:55;22.70;99.30
41058;DHT22;66768;48.884;2.258;2023-06-22T00:40:26;22.60;99.30
41058;DHT22;66768;48.884;2.258;2023-06-22T00:42:54;22.60;99.70
41058;DHT22;66768;48.884;2.258;2023-06-22T00:45:21;22.60;99.50
41058;DHT22;66768;48.884;2.258;2023-06-22T00:47:50;22.50;99.50
41058;DHT22;66768;48.884;2.258;2023-06-22T00:50:21;22.50;99.40
41058;DHT22;66768;48.884;2.258;2023-06-22T00:52:51;22.50;99.50
41058;DHT22;66768;48.884;2.258;2023-06-22T00:55:19;22.50;99.40
41058;DHT22;66768;48.884;2.258;2023-06-22T00:57:46;22.60;99.80
41058;DHT22;66768;48.884;2.258;2023-06-22T01:00:15;22.50;99.40
41058;DHT22;66768;48.884;2.258;2023-06-22T01:02:43;22.50;99.50
41058;DHT22;66768;48.884;2.258;2023-06-22T01:05:12;22.50;99.60
41058;DHT22;66768;48.884;2.258;2023-06-22T01:07:48;22.50;99.70
41058;DHT22;66768;48.884;2.258;2023-06-22T01:10:27;22.50;99.80
41058;DHT22;66768;48.884;2.258;2023-06-22T01:13:02;22.50;99.60
41058;DHT22;66768;48.884;2.258;2023-06-22T01:15:31;22.40;99.60
41058;DHT22;66768;48.884;2.258;2023-06-22T01:18:02;22.40;99.70
41058;DHT22;66768;48.884;2.258;2023-06-22T01:20:31;22.40;99.70
41058;DHT22;66768;48.884;2.258;2023-06-22T01:23:09;22.40;99.60
41058;DHT22;66768;48.884;2.258;2023-06-22T01:25:45;22.40;99.50
41058;DHT22;66768;48.884;2.258;2023-06-22T01:30:55;22.30;99.60
41058;DHT22;66768;48.884;2.258;2023-06-22T01:33:33;22.40;99.90
41058;DHT22;66768;48.884;2.258;2023-06-22T01:36:01;22.40;99.50
41058;DHT22;66768;48.884;2.258;2023-06-22T01:38:29;22.40;99.50
41058;DHT22;66768;48.884;2.258;2023-06-22T01:40:57;22.30;99.60
41058;DHT22;66768;48.884;2.258;2023-06-22T01:43:26;22.30;99.60
41058;DHT22;66768;48.884;2.258;2023-06-22T01:45:55;22.30;99.50
41058;DHT22;66768;48.884;2.258;2023-06-22T01:48:22;22.30;99.50
41058;DHT22;66768;48.884;2.258;2023-06-22T01:50:51;22.30;99.50
41058;DHT22;66768;48.884;2.258;2023-06-22T01:53:20;22.20;99.50
41058;DHT22;66768;48.884;2.258;2023-06-22T01:55:47;22.10;99.50
41058;DHT22;66768;48.884;2.258;2023-06-22T01:58:14;22.20;99.90
41058;DHT22;66768;48.884;2.258;2023-06-22T02:00:46;22.20;99.60
41058;DHT22;66768;48.884;2.258;2023-06-22T02:03:19;22.20;99.60
41058;DHT22;66768;48.884;2.258;2023-06-22T02:05:50;22.20;99.60
41058;DHT22;66768;48.884;2.258;2023-06-22T02:08:21;22.10;99.50
41058;DHT22;66768;48.884;2.258;2023-06-22T02:10:49;22.10;99.60
41058;DHT22;66768;48.884;2.258;2023-06-22T02:13:17;22.10;99.60
41058;DHT22;66768;48.884;2.258;2023-06-22T02:15:45;22.10;99.70
41058;DHT22;66768;48.884;2.258;2023-06-22T02:18:13;22.20;99.70
41058;DHT22;66768;48.884;2.258;2023-06-22T02:20:41;22.20;99.60
41058;DHT22;66768;48.884;2.258;2023-06-22T02:23:08;22.20;99.60
41058;DHT22;66768;48.884;2.258;2023-06-22T02:25:35;22.10;99.40
41058;DHT22;66768;48.884;2.258;2023-06-22T02:28:03;22.20;99.80
41058;DHT22;66768;48.884;2.258;2023-06-22T02:30:30;22.20;99.50
41058;DHT22;66768;48.884;2.258;2023-06-22T02:32:56;22.20;99.70
41058;DHT22;66768;48.884;2.258;2023-06-22T02:35:25;22.20;99.40
41058;DHT22;66768;48.884;2.258;2023-06-22T02:37:53;22.20;99.60
41058;DHT22;66768;48.884;2.258;2023-06-22T02:40:20;22.20;99.20
41058;DHT22;66768;48.884;2.258;2023-06-22T02:42:47;22.10;99.30
41058;DHT22;66768;48.884;2.258;2023-06-22T02:45:15;22.10;99.60
41058;DHT22;66768;48.884;2.258;2023-06-22T02:47:41;22.10;99.40
41058;DHT22;66768;48.884;2.258;2023-06-22T02:50:09;22.10;99.40
41058;DHT22;66768;48.884;2.258;2023-06-22T02:52:36;22.00;99.40
41058;DHT22;66768;48.884;2.258;2023-06-22T02:55:06;22.10;99.40
41058;DHT22;66768;48.884;2.258;2023-06-22T02:57:33;22.10;99.40
41058;DHT22;66768;48.884;2.258;2023-06-22T03:00:02;22.10;99.40
41058;DHT22;66768;48.884;2.258;2023-06-22T03:02:34;22.10;99.40
41058;DHT22;66768;48.884;2.258;2023-06-22T03:05:01;22.00;99.30
41058;DHT22;66768;48.884;2.258;2023-06-22T03:07:29;22.00;99.40
41058;DHT22;66768;48.884;2.258;2023-06-22T03:09:57;21.90;99.80
41058;DHT22;66768;48.884;2.258;2023-06-22T03:12:25;21.90;99.60
41058;DHT22;66768;48.884;2.258;2023-06-22T03:14:52;22.00;99.90
41058;DHT22;66768;48.884;2.258;2023-06-22T03:17:19;21.90;99.60
41058;DHT22;66768;48.884;2.258;2023-06-22T03:19:45;22.00;99.60
41058;DHT22;66768;48.884;2.258;2023-06-22T03:22:12;21.90;99.60
41058;DHT22;66768;48.884;2.258;2023-06-22T03:24:40;21.90;99.50
41058;DHT22;66768;48.884;2.258;2023-06-22T03:27:07;21.90;99.70
41058;DHT22;66768;48.884;2.258;2023-06-22T03:29:35;21.90;99.70
41058;DHT22;66768;48.884;2.258;2023-06-22T03:32:03;21.90;99.90
41058;DHT22;66768;48.884;2.258;2023-06-22T03:34:30;21.90;99.60
41058;DHT22;66768;48.884;2.258;2023-06-22T03:36:59;21.90;99.70
41058;DHT22;66768;48.884;2.258;2023-06-22T03:39:26;21.80;99.70
41058;DHT22;66768;48.884;2.258;2023-06-22T03:41:52;21.80;99.80
41058;DHT22;66768;48.884;2.258;2023-06-22T03:44:19;21.80;99.80
41058;DHT22;66768;48.884;2.258;2023-06-22T03:46:47;21.70;99.90
41058;DHT22;66768;48.884;2.258;2023-06-22T03:49:14;21.80;99.90
41058;DHT22;66768;48.884;2.258;2023-06-22T03:51:41;21.80;99.90
41058;DHT22;66768;48.884;2.258;2023-06-22T03:54:08;21.70;99.90
41058;DHT22;66768;48.884;2.258;2023-06-22T03:56:35;21.80;99.90
41058;DHT22;66768;48.884;2.258;2023-06-22T03:59:02;21.80;99.90
41058;DHT22;66768;48.884;2.258;2023-06-22T04:01:29;21.80;99.90
41058;DHT22;66768;48.884;2.258;2023-06-22T04:03:57;21.80;99.90
41058;DHT22;66768;48.884;2.258;2023-06-22T04:06:24;21.70;99.90
41058;DHT22;66768;48.884;2.258;2023-06-22T04:08:51;21.80;99.90
41058;DHT22;66768;48.884;2.258;2023-06-22T04:11:18;21.80;99.90
41058;DHT22;66768;48.884;2.258;2023-06-22T04:13:45;21.80;99.90
41058;DHT22;66768;48.884;2.258;2023-06-22T04:16:14;21.80;99.90
41058;DHT22;66768;48.884;2.258;2023-06-22T04:18:41;21.80;99.90
41058;DHT22;66768;48.884;2.258;2023-06-22T04:21:10;21.90;99.90
41058;DHT22;66768;48.884;2.258;2023-06-22T04:23:37;21.90;99.90
41058;DHT22;66768;48.884;2.258;2023-06-22T04:26:03;22.00;99.90
41058;DHT22;66768;48.884;2.258;2023-06-22T04:28:30;21.90;99.90
41058;DHT22;66768;48.884;2.258;2023-06-22T04:31:00;22.00;99.90
41058;DHT22;66768;48.884;2.258;2023-06-22T04:33:27;22.00;99.90
41058;DHT22;66768;48.884;2.258;2023-06-22T04:35:55;22.00;99.90
41058;DHT22;66768;48.884;2.258;2023-06-22T04:38:24;22.00;99.90
41058;DHT22;66768;48.884;2.258;2023-06-22T04:40:51;22.00;99.90
41058;DHT22;66768;48.884;2.258;2023-06-22T04:43:18;22.00;99.90
41058;DHT22;66768;48.884;2.258;2023-06-22T04:45:45;22.00;99.90
41058;DHT22;66768;48.884;2.258;2023-06-22T04:48:17;22.00;99.90
41058;DHT22;66768;48.884;2.258;2023-06-22T04:50:44;22.00;99.90
41058;DHT22;66768;48.884;2.258;2023-06-22T04:53:11;22.00;99.90
41058;DHT22;66768;48.884;2.258;2023-06-22T04:55:39;22.00;99.90
41058;DHT22;66768;48.884;2.258;2023-06-22T04:58:12;21.90;99.90
41058;DHT22;66768;48.884;2.258;2023-06-22T05:00:38;21.90;99.90
41058;DHT22;66768;48.884;2.258;2023-06-22T05:03:06;21.80;99.90
41058;DHT22;66768;48.884;2.258;2023-06-22T05:05:36;21.80;99.90
41058;DHT22;66768;48.884;2.258;2023-06-22T05:08:03;21.70;99.90
41058;DHT22;66768;48.884;2.258;2023-06-22T05:10:32;21.70;99.90
41058;DHT22;66768;48.884;2.258;2023-06-22T05:13:00;21.70;99.90
41058;DHT22;66768;48.884;2.258;2023-06-22T05:15:27;21.70;99.90
41058;DHT22;66768;48.884;2.258;2023-06-22T05:17:56;21.60;99.90
41058;DHT22;66768;48.884;2.258;2023-06-22T05:20:23;21.60;99.90
41058;DHT22;66768;48.884;2.258;2023-06-22T05:22:50;21.60;99.90
41058;DHT22;66768;48.884;2.258;2023-06-22T05:25:17;21.60;99.90
41058;DHT22;66768;48.884;2.258;2023-06-22T05:27:45;21.60;99.90
41058;DHT22;66768;48.884;2.258;2023-06-22T05:30:13;21.70;99.90
41058;DHT22;66768;48.884;2.258;2023-06-22T05:32:41;21.60;99.90
41058;DHT22;66768;48.884;2.258;2023-06-22T05:35:09;21.30;99.90
41058;DHT22;66768;48.884;2.258;2023-06-22T05:37:36;21.20;99.90
41058;DHT22;66768;48.884;2.258;2023-06-22T05:40:04;21.20;99.90
41058;DHT22;66768;48.884;2.258;2023-06-22T05:42:32;21.20;99.90
41058;DHT22;66768;48.884;2.258;2023-06-22T05:44:59;21.10;99.90
41058;DHT22;66768;48.884;2.258;2023-06-22T05:47:27;21.00;99.90
41058;DHT22;66768;48.884;2.258;2023-06-22T05:49:54;21.00;99.90
41058;DHT22;66768;48.884;2.258;2023-06-22T05:52:21;21.00;99.90
41058;DHT22;66768;48.884;2.258;2023-06-22T05:54:48;21.00;99.90
41058;DHT22;66768;48.884;2.258;2023-06-22T05:57:15;21.00;99.90
41058;DHT22;66768;48.884;2.258;2023-06-22T05:59:42;21.00;99.90
41058;DHT22;66768;48.884;2.258;2023-06-22T06:02:09;20.90;99.90
41058;DHT22;66768;48.884;2.258;2023-06-22T06:04:37;20.90;99.90
41058;DHT22;66768;48.884;2.258;2023-06-22T06:07:04;20.70;99.90
41058;DHT22;66768;48.884;2.258;2023-06-22T06:09:31;20.70;99.90
41058;DHT22;66768;48.884;2.258;2023-06-22T06:11:58;20.60;99.90
41058;DHT22;66768;48.884;2.258;2023-06-22T06:14:24;20.40;99.90
41058;DHT22;66768;48.884;2.258;2023-06-22T06:16:51;20.40;99.90
41058;DHT22;66768;48.884;2.258;2023-06-22T06:19:18;20.30;99.90
41058;DHT22;66768;48.884;2.258;2023-06-22T06:21:46;20.30;99.90
41058;DHT22;66768;48.884;2.258;2023-06-22T06:24:13;20.20;99.90
41058;DHT22;66768;48.884;2.258;2023-06-22T06:26:40;20.00;99.90
41058;DHT22;66768;48.884;2.258;2023-06-22T06:29:07;20.00;99.90
41058;DHT22;66768;48.884;2.258;2023-06-22T06:31:34;19.90;99.90
41058;DHT22;66768;48.884;2.258;2023-06-22T06:34:01;19.80;99.90
41058;DHT22;66768;48.884;2.258;2023-06-22T06:36:28;19.90;99.90
41058;DHT22;66768;48.884;2.258;2023-06-22T06:38:56;19.70;99.90
41058;DHT22;66768;48.884;2.258;2023-06-22T06:41:23;19.80;99.90
41058;DHT22;66768;48.884;2.258;2023-06-22T06:43:50;19.70;99.90
41058;DHT22;66768;48.884;2.258;2023-06-22T06:46:17;19.70;99.90
41058;DHT22;66768;48.884;2.258;2023-06-22T06:48:45;19.70;99.90
41058;DHT22;66768;48.884;2.258;2023-06-22T06:51:12;19.80;99.90
41058;DHT22;66768;48.884;2.258;2023-06-22T06:53:39;19.80;99.90
41058;DHT22;66768;48.884;2.258;2023-06-22T06:56:07;19.70;99.90
41058;DHT22;66768;48.884;2.258;2023-06-22T06:58:36;19.70;99.90
41058;DHT22;66768;48.884;2.258;2023-06-22T07:01:03;19.70;99.90
41058;DHT22;66768;48.884;2.258;2023-06-22T07:03:30;19.60;99.90
41058;DHT22;66768;48.884;2.258;2023-06-22T07:05:58;19.60;99.90
41058;DHT22;66768;48.884;2.258;2023-06-22T07:08:25;19.60;99.90
41058;DHT22;66768;48.884;2.258;2023-06-22T07:10:52;19.60;99.90
41058;DHT22;66768;48.884;2.258;2023-06-22T07:13:21;19.60;99.90
41058;DHT22;66768;48.884;2.258;2023-06-22T07:15:48;19.60;99.90
41058;DHT22;66768;48.884;2.258;2023-06-22T07:18:14;19.50;99.90
41058;DHT22;66768;48.884;2.258;2023-06-22T07:20:41;19.50;99.90
41058;DHT22;66768;48.884;2.258;2023-06-22T07:23:08;19.50;99.90
41058;DHT22;66768;48.884;2.258;2023-06-22T07:25:35;19.40;99.90
41058;DHT22;66768;48.884;2.258;2023-06-22T07:28:05;19.40;99.90
41058;DHT22;66768;48.884;2.258;2023-06-22T07:30:34;19.40;99.90
41058;DHT22;66768;48.884;2.258;2023-06-22T07:33:01;19.40;99.90
41058;DHT22;66768;48.884;2.258;2023-06-22T07:35:29;19.40;99.90
41058;DHT22;66768;48.884;2.258;2023-06-22T07:37:56;19.50;99.90
41058;DHT22;66768;48.884;2.258;2023-06-22T07:40:23;19.50;99.90
41058;DHT22;66768;48.884;2.258;2023-06-22T07:42:50;19.50;99.90
41058;DHT22;66768;48.884;2.258;2023-06-22T07:45:19;19.50;99.90
41058;DHT22;66768;48.884;2.258;2023-06-22T07:47:47;19.50;99.90
41058;DHT22;66768;48.884;2.258;2023-06-22T07:50:14;19.60;99.90
41058;DHT22;66768;48.884;2.258;2023-06-22T07:52:41;19.50;99.90
41058;DHT22;66768;48.884;2.258;2023-06-22T07:55:08;19.60;99.90
41058;DHT22;66768;48.884;2.258;2023-06-22T07:57:35;19.60;99.90
41058;DHT22;66768;48.884;2.258;2023-06-22T08:00:04;19.70;99.90
41058;DHT22;66768;48.884;2.258;2023-06-22T08:02:37;19.60;99.90
41058;DHT22;66768;48.884;2.258;2023-06-22T08:05:06;19.60;99.90
41058;DHT22;66768;48.884;2.258;2023-06-22T08:07:34;19.50;99.90
41058;DHT22;66768;48.884;2.258;2023-06-22T08:10:03;19.50;99.90
41058;DHT22;66768;48.884;2.258;2023-06-22T08:12:30;19.50;99.90
41058;DHT22;66768;48.884;2.258;2023-06-22T08:14:57;19.50;99.90
41058;DHT22;66768;48.884;2.258;2023-06-22T08:17:23;19.50;99.90
41058;DHT22;66768;48.884;2.258;2023-06-22T08:19:50;19.60;99.90
41058;DHT22;66768;48.884;2.258;2023-06-22T08:22:19;19.60;99.90
41058;DHT22;66768;48.884;2.258;2023-06-22T08:24:46;19.60;99.90
41058;DHT22;66768;48.884;2.258;2023-06-22T08:27:12;19.60;99.90
41058;DHT22;66768;48.884;2.258;2023-06-22T08:29:40;19.60;99.90
41058;DHT22;66768;48.884;2.258;2023-06-22T08:32:08;19.50;99.90
41058;DHT22;66768;48.884;2.258;2023-06-22T08:34:36;19.50;99.90
41058;DHT22;66768;48.884;2.258;2023-06-22T08:37:07;19.50;99.90
41058;DHT22;66768;48.884;2.258;2023-06-22T08:39:35;19.50;99.90
41058;DHT22;66768;48.884;2.258;2023-06-22T08:42:02;19.40;99.90
41058;DHT22;66768;48.884;2.258;2023-06-22T08:44:29;19.40;99.90
41058;DHT22;66768;48.884;2.258;2023-06-22T08:46:56;19.30;99.90
41058;DHT22;66768;48.884;2.258;2023-06-22T08:49:23;19.30;99.90
41058;DHT22;66768;48.884;2.258;2023-06-22T08:51:50;19.20;99.90
41058;DHT22;66768;48.884;2.258;2023-06-22T08:54:18;19.20;99.90
41058;DHT22;66768;48.884;2.258;2023-06-22T08:56:47;19.20;99.90
41058;DHT22;66768;48.884;2.258;2023-06-22T08:59:14;19.10;99.90
41058;DHT22;66768;48.884;2.258;2023-06-22T09:01:41;19.00;99.90
41058;DHT22;66768;48.884;2.258;2023-06-22T09:04:14;19.00;99.90
41058;DHT22;66768;48.884;2.258;2023-06-22T09:06:41;19.00;99.90
41058;DHT22;66768;48.884;2.258;2023-06-22T09:09:10;19.10;99.90
41058;DHT22;66768;48.884;2.258;2023-06-22T09:11:37;19.10;99.90
41058;DHT22;66768;48.884;2.258;2023-06-22T09:14:06;19.00;99.90
41058;DHT22;66768;48.884;2.258;2023-06-22T09:16:33;18.90;99.90
41058;DHT22;66768;48.884;2.258;2023-06-22T09:19:00;18.90;99.90
41058;DHT22;66768;48.884;2.258;2023-06-22T09:21:27;18.90;99.90
41058;DHT22;66768;48.884;2.258;2023-06-22T09:23:54;18.90;99.90
41058;DHT22;66768;48.884;2.258;2023-06-22T09:26:22;19.00;99.90
41058;DHT22;66768;48.884;2.258;2023-06-22T09:28:49;18.90;99.90
41058;DHT22;66768;48.884;2.258;2023-06-22T09:31:18;18.90;99.90
41058;DHT22;66768;48.884;2.258;2023-06-22T09:33:51;18.90;99.90
41058;DHT22;66768;48.884;2.258;2023-06-22T09:36:18;18.90;99.90
41058;DHT22;66768;48.884;2.258;2023-06-22T09:38:45;19.00;99.90
41058;DHT22;66768;48.884;2.258;2023-06-22T09:41:12;19.00;99.90
41058;DHT22;66768;48.884;2.258;2023-06-22T09:43:38;19.00;99.90
41058;DHT22;66768;48.884;2.258;2023-06-22T09:46:08;19.00;99.90
41058;DHT22;66768;48.884;2.258;2023-06-22T09:48:36;19.00;99.90
41058;DHT22;66768;48.884;2.258;2023-06-22T09:51:03;19.00;99.90
41058;DHT22;66768;48.884;2.258;2023-06-22T09:53:30;19.10;99.90
41058;DHT22;66768;48.884;2.258;2023-06-22T09:55:57;19.10;99.90
41058;DHT22;66768;48.884;2.258;2023-06-22T09:58:23;19.10;99.90
41058;DHT22;66768;48.884;2.258;2023-06-22T10:00:50;19.10;99.90
41058;DHT22;66768;48.884;2.258;2023-06-22T10:03:18;19.20;99.90
41058;DHT22;66768;48.884;2.258;2023-06-22T10:05:46;19.20;99.90
41058;DHT22;66768;48.884;2.258;2023-06-22T10:08:13;19.30;99.90
41058;DHT22;66768;48.884;2.258;2023-06-22T10:10:40;19.40;99.90
41058;DHT22;66768;48.884;2.258;2023-06-22T10:13:08;19.50;99.90
41058;DHT22;66768;48.884;2.258;2023-06-22T10:15:36;19.60;99.90
41058;DHT22;66768;48.884;2.258;2023-06-22T10:18:03;19.60;99.90
41058;DHT22;66768;48.884;2.258;2023-06-22T10:20:30;19.60;99.90
41058;DHT22;66768;48.884;2.258;2023-06-22T10:22:58;19.80;99.90
41058;DHT22;66768;48.884;2.258;2023-06-22T10:25:25;19.90;99.90
41058;DHT22;66768;48.884;2.258;2023-06-22T10:27:52;19.90;99.90
41058;DHT22;66768;48.884;2.258;2023-06-22T10:30:18;19.90;99.90
41058;DHT22;66768;48.884;2.258;2023-06-22T10:32:46;19.90;99.90
41058;DHT22;66768;48.884;2.258;2023-06-22T10:35:13;20.10;99.90
41058;DHT22;66768;48.884;2.258;2023-06-22T10:37:42;20.20;99.90
41058;DHT22;66768;48.884;2.258;2023-06-22T10:40:12;20.30;99.90
41058;DHT22;66768;48.884;2.258;2023-06-22T10:42:39;20.50;99.90
41058;DHT22;66768;48.884;2.258;2023-06-22T10:45:07;20.50;99.90
41058;DHT22;66768;48.884;2.258;2023-06-22T10:47:34;20.60;99.90
41058;DHT22;66768;48.884;2.258;2023-06-22T10:50:01;20.70;99.90
41058;DHT22;66768;48.884;2.258;2023-06-22T10:52:28;20.80;99.90
41058;DHT22;66768;48.884;2.258;2023-06-22T10:54:55;20.90;99.90
41058;DHT22;66768;48.884;2.258;2023-06-22T10:57:24;20.80;99.90
41058;DHT22;66768;48.884;2.258;2023-06-22T10:59:50;20.90;99.90
41058;DHT22;66768;48.884;2.258;2023-06-22T11:02:17;21.00;99.90
41058;DHT22;66768;48.884;2.258;2023-06-22T11:04:45;21.00;99.90
41058;DHT22;66768;48.884;2.258;2023-06-22T11:07:13;21.10;99.90
41058;DHT22;66768;48.884;2.258;2023-06-22T11:09:40;21.20;99.90
41058;DHT22;66768;48.884;2.258;2023-06-22T11:12:07;21.20;99.90
41058;DHT22;66768;48.884;2.258;2023-06-22T11:14:35;21.40;99.90
41058;DHT22;66768;48.884;2.258;2023-06-22T11:17:03;21.40;99.90
41058;DHT22;66768;48.884;2.258;2023-06-22T11:19:30;21.50;99.90
41058;DHT22;66768;48.884;2.258;2023-06-22T11:21:57;21.50;99.90
41058;DHT22;66768;48.884;2.258;2023-06-22T11:24:24;21.40;99.90
41058;DHT22;66768;48.884;2.258;2023-06-22T11:26:51;21.40;99.90
41058;DHT22;66768;48.884;2.258;2023-06-22T11:29:18;21.50;99.90
41058;DHT22;66768;48.884;2.258;2023-06-22T11:31:46;21.50;99.90
41058;DHT22;66768;48.884;2.258;2023-06-22T11:34:13;21.60;99.90
41058;DHT22;66768;48.884;2.258;2023-06-22T11:36:39;21.60;99.90
41058;DHT22;66768;48.884;2.258;2023-06-22T11:39:08;21.50;99.90
41058;DHT22;66768;48.884;2.258;2023-06-22T11:41:35;21.50;99.90
41058;DHT22;66768;48.884;2.258;2023-06-22T11:44:02;21.60;99.90
41058;DHT22;66768;48.884;2.258;2023-06-22T11:46:30;21.70;99.90
41058;DHT22;66768;48.884;2.258;2023-06-22T11:48:58;21.70;99.90
41058;DHT22;66768;48.884;2.258;2023-06-22T11:51:25;21.80;99.90
41058;DHT22;66768;48.884;2.258;2023-06-22T11:53:53;21.80;99.90
41058;DHT22;66768;48.884;2.258;2023-06-22T11:56:20;21.90;99.90
41058;DHT22;66768;48.884;2.258;2023-06-22T11:58:47;21.90;99.90
41058;DHT22;66768;48.884;2.258;2023-06-22T12:01:14;21.90;99.90
41058;DHT22;66768;48.884;2.258;2023-06-22T12:03:40;21.80;99.90
41058;DHT22;66768;48.884;2.258;2023-06-22T12:06:10;21.90;99.90
41058;DHT22;66768;48.884;2.258;2023-06-22T12:08:37;21.90;99.90
41058;DHT22;66768;48.884;2.258;2023-06-22T12:11:04;21.90;99.90
41058;DHT22;66768;48.884;2.258;2023-06-22T12:13:31;22.00;99.90
41058;DHT22;66768;48.884;2.258;2023-06-22T12:15:58;22.10;99.90
41058;DHT22;66768;48.884;2.258;2023-06-22T12:18:25;22.20;99.90
41058;DHT22;66768;48.884;2.258;2023-06-22T12:20:52;22.20;99.90
41058;DHT22;66768;48.884;2.258;2023-06-22T12:23:20;22.30;99.90
41058;DHT22;66768;48.884;2.258;2023-06-22T12:25:47;22.40;99.90
41058;DHT22;66768;48.884;2.258;2023-06-22T12:28:14;22.40;99.90
41058;DHT22;66768;48.884;2.258;2023-06-22T12:30:40;22.40;99.90
41058;DHT22;66768;48.884;2.258;2023-06-22T12:33:07;22.40;99.90
41058;DHT22;66768;48.884;2.258;2023-06-22T12:35:34;22.40;99.90
41058;DHT22;66768;48.884;2.258;2023-06-22T12:38:01;22.30;99.90
41058;DHT22;66768;48.884;2.258;2023-06-22T12:40:29;22.40;99.90
41058;DHT22;66768;48.884;2.258;2023-06-22T12:42:56;22.40;99.90
41058;DHT22;66768;48.884;2.258;2023-06-22T12:45:23;22.50;99.90
41058;DHT22;66768;48.884;2.258;2023-06-22T12:47:54;22.50;99.90
41058;DHT22;66768;48.884;2.258;2023-06-22T12:50:21;22.50;99.90
41058;DHT22;66768;48.884;2.258;2023-06-22T12:52:49;22.60;99.90
41058;DHT22;66768;48.884;2.258;2023-06-22T12:55:15;22.50;99.90
41058;DHT22;66768;48.884;2.258;2023-06-22T12:57:44;22.50;99.90
41058;DHT22;66768;48.884;2.258;2023-06-22T13:00:11;22.60;99.90
41058;DHT22;66768;48.884;2.258;2023-06-22T13:02:38;22.60;99.90
41058;DHT22;66768;48.884;2.258;2023-06-22T13:05:06;22.60;99.90
41058;DHT22;66768;48.884;2.258;2023-06-22T13:07:33;22.70;99.90
41058;DHT22;66768;48.884;2.258;2023-06-22T13:09:59;22.70;99.90
41058;DHT22;66768;48.884;2.258;2023-06-22T13:12:26;22.80;99.90
41058;DHT22;66768;48.884;2.258;2023-06-22T13:14:55;22.80;99.90
41058;DHT22;66768;48.884;2.258;2023-06-22T13:17:22;22.90;99.90
41058;DHT22;66768;48.884;2.258;2023-06-22T13:19:48;22.80;99.90
41058;DHT22;66768;48.884;2.258;2023-06-22T13:22:30;22.80;99.90
41058;DHT22;66768;48.884;2.258;2023-06-22T13:24:59;22.90;99.90
41058;DHT22;66768;48.884;2.258;2023-06-22T13:27:26;22.80;99.90
41058;DHT22;66768;48.884;2.258;2023-06-22T13:29:54;22.80;99.90
41058;DHT22;66768;48.884;2.258;2023-06-22T13:32:21;22.90;99.90
41058;DHT22;66768;48.884;2.258;2023-06-22T13:34:48;22.90;99.90
41058;DHT22;66768;48.884;2.258;2023-06-22T13:37:15;22.90;99.90
41058;DHT22;66768;48.884;2.258;2023-06-22T13:39:42;23.00;99.90
41058;DHT22;66768;48.884;2.258;2023-06-22T13:42:09;23.00;99.90
41058;DHT22;66768;48.884;2.258;2023-06-22T13:44:35;23.00;99.90
41058;DHT22;66768;48.884;2.258;2023-06-22T13:47:06;23.00;99.90
41058;DHT22;66768;48.884;2.258;2023-06-22T13:49:33;22.90;99.90
41058;DHT22;66768;48.884;2.258;2023-06-22T13:52:00;22.90;99.90
41058;DHT22;66768;48.884;2.258;2023-06-22T13:54:29;22.90;99.90
41058;DHT22;66768;48.884;2.258;2023-06-22T13:56:55;22.90;99.90
41058;DHT22;66768;48.884;2.258;2023-06-22T13:59:22;23.00;99.90
41058;DHT22;66768;48.884;2.258;2023-06-22T14:01:50;23.00;99.90
41058;DHT22;66768;48.884;2.258;2023-06-22T14:04:18;23.00;99.90
41058;DHT22;66768;48.884;2.258;2023-06-22T14:06:45;23.00;99.90
41058;DHT22;66768;48.884;2.258;2023-06-22T14:09:12;23.00;99.90
41058;DHT22;66768;48.884;2.258;2023-06-22T14:11:39;23.00;99.90
41058;DHT22;66768;48.884;2.258;2023-06-22T14:14:05;23.00;99.90
41058;DHT22;66768;48.884;2.258;2023-06-22T14:16:32;23.10;99.90
41058;DHT22;66768;48.884;2.258;2023-06-22T14:18:59;23.10;99.90
41058;DHT22;66768;48.884;2.258;2023-06-22T14:21:27;23.20;99.90
41058;DHT22;66768;48.884;2.258;2023-06-22T14:23:54;23.20;99.90
41058;DHT22;66768;48.884;2.258;2023-06-22T14:26:21;23.20;99.90
41058;DHT22;66768;48.884;2.258;2023-06-22T14:28:48;23.20;99.90
41058;DHT22;66768;48.884;2.258;2023-06-22T14:31:16;23.20;99.90
41058;DHT22;66768;48.884;2.258;2023-06-22T14:33:46;23.20;99.90
41058;DHT22;66768;48.884;2.258;2023-06-22T14:36:13;23.20;99.90
41058;DHT22;66768;48.884;2.258;2023-06-22T14:38:41;23.20;99.90
41058;DHT22;66768;48.884;2.258;2023-06-22T14:41:08;23.20;99.90
41058;DHT22;66768;48.884;2.258;2023-06-22T14:43:35;23.20;99.90
41058;DHT22;66768;48.884;2.258;2023-06-22T14:46:02;23.20;99.90
41058;DHT22;66768;48.884;2.258;2023-06-22T14:48:29;23.30;99.90
41058;DHT22;66768;48.884;2.258;2023-06-22T14:50:56;23.30;99.90
41058;DHT22;66768;48.884;2.258;2023-06-22T14:53:23;23.40;99.90
41058;DHT22;66768;48.884;2.258;2023-06-22T14:55:53;23.40;99.90
41058;DHT22;66768;48.884;2.258;2023-06-22T14:58:20;23.40;99.90
41058;DHT22;66768;48.884;2.258;2023-06-22T15:00:47;23.40;99.90
41058;DHT22;66768;48.884;2.258;2023-06-22T15:03:14;23.50;99.90
41058;DHT22;66768;48.884;2.258;2023-06-22T15:05:46;23.60;99.90
41058;DHT22;66768;48.884;2.258;2023-06-22T15:08:13;23.60;99.90
41058;DHT22;66768;48.884;2.258;2023-06-22T15:10:40;23.60;99.90
41058;DHT22;66768;48.884;2.258;2023-06-22T15:13:08;23.60;99.90
41058;DHT22;66768;48.884;2.258;2023-06-22T15:15:35;23.70;99.90
41058;DHT22;66768;48.884;2.258;2023-06-22T15:18:02;23.70;99.90
41058;DHT22;66768;48.884;2.258;2023-06-22T15:20:29;23.60;99.90
41058;DHT22;66768;48.884;2.258;2023-06-22T15:22:56;23.70;99.90
41058;DHT22;66768;48.884;2.258;2023-06-22T15:25:23;23.70;99.90
41058;DHT22;66768;48.884;2.258;2023-06-22T15:27:50;23.70;99.90
41058;DHT22;66768;48.884;2.258;2023-06-22T15:30:18;23.70;99.90
41058;DHT22;66768;48.884;2.258;2023-06-22T15:32:45;23.80;99.90
41058;DHT22;66768;48.884;2.258;2023-06-22T15:35:13;23.80;99.90